Time,TemperatureF,DewpointF,PressureIn,WindDirection,WindDirectionDegrees,WindSpeedMPH,WindSpeedGustMPH,Humidity,HourlyPrecipIn,Conditions,Clouds,dailyrainin,SoftwareType,DateUTC
2013-03-02 00:04:00,35.7,27.0,29.66,WNW,299,1.0,4.0,72,0.00,,,0.00,weatherlink.com 1.10,2013-03-02 05:04:00,
2013-03-02 00:19:00,35.6,27.0,29.66,NW,316,3.0,7.0,72,0.00,,,0.00,weatherlink.com 1.10,2013-03-02 05:19:00,
2013-03-02 00:34:00,35.5,27.0,29.66,NW,326,0.0,8.0,72,0.00,,,0.00,weatherlink.com 1.10,2013-03-02 05:34:00,
2013-03-02 00:49:00,35.5,27.0,29.66,NW,313,2.0,5.0,72,0.00,,,0.00,weatherlink.com 1.10,2013-03-02 05:49:00,
2013-03-02 01:04:00,35.3,27.0,29.66,West,269,1.0,5.0,72,0.00,,,0.00,weatherlink.com 1.10,2013-03-02 06:04:00,
2013-03-02 01:19:00,35.2,27.0,29.66,West,275,0.0,2.0,72,0.00,,,0.00,weatherlink.com 1.10,2013-03-02 06:19:00,
2013-03-02 01:34:00,35.0,27.0,29.66,WSW,254,2.0,2.0,73,0.00,,,0.00,weatherlink.com 1.10,2013-03-02 06:34:00,
2013-03-02 01:49:00,34.9,27.0,29.65,WNW,294,1.0,2.0,73,0.00,,,0.00,weatherlink.com 1.10,2013-03-02 06:49:00,
2013-03-02 02:04:00,34.7,27.0,29.65,NW,317,0.0,3.0,73,0.00,,,0.00,weatherlink.com 1.10,2013-03-02 07:04:00,
2013-03-02 02:19:00,34.7,27.0,29.65,NW,310,0.0,4.0,73,0.00,,,0.00,weatherlink.com 1.10,2013-03-02 07:19:00,
2013-03-02 02:34:00,34.6,27.0,29.65,NW,309,2.0,3.0,73,0.00,,,0.00,weatherlink.com 1.10,2013-03-02 07:34:00,
2013-03-02 02:49:00,34.5,27.0,29.65,WNW,292,0.0,1.0,74,0.00,,,0.00,weatherlink.com 1.10,2013-03-02 07:49:00,
2013-03-02 03:04:00,34.5,27.0,29.65,West,269,0.0,2.0,74,0.00,,,0.00,weatherlink.com 1.10,2013-03-02 08:04:00,
2013-03-02 03:19:00,34.5,27.0,29.65,West,269,0.0,3.0,73,0.00,,,0.00,weatherlink.com 1.10,2013-03-02 08:19:00,
2013-03-02 03:35:00,34.4,27.0,29.65,WSW,237,1.0,3.0,73,0.00,,,0.00,weatherlink.com 1.10,2013-03-02 08:35:00,
2013-03-02 03:50:00,34.3,27.0,29.65,WNW,285,1.0,2.0,74,0.00,,,0.00,weatherlink.com 1.10,2013-03-02 08:50:00,
2013-03-02 04:05:00,34.1,27.0,29.65,NNW,328,0.0,2.0,74,0.00,,,0.00,weatherlink.com 1.10,2013-03-02 09:05:00,
2013-03-02 04:20:00,33.9,26.0,29.65,West,275,0.0,2.0,74,0.00,,,0.00,weatherlink.com 1.10,2013-03-02 09:20:00,
2013-03-02 04:35:00,33.7,26.0,29.65,WSW,254,0.0,3.0,74,0.00,,,0.00,weatherlink.com 1.10,2013-03-02 09:35:00,
2013-03-02 04:50:00,33.4,26.0,29.66,WNW,284,1.0,4.0,74,0.00,,,0.00,weatherlink.com 1.10,2013-03-02 09:50:00,
2013-03-02 05:05:00,33.2,26.0,29.66,WSW,245,1.0,3.0,75,0.00,,,0.00,weatherlink.com 1.10,2013-03-02 10:05:00,
2013-03-02 05:20:00,33.2,26.0,29.66,SW,229,0.0,2.0,75,0.00,,,0.00,weatherlink.com 1.10,2013-03-02 10:20:00,
2013-03-02 05:50:00,33.1,26.0,29.66,SW,232,0.0,1.0,75,0.00,,,0.00,weatherlink.com 1.10,2013-03-02 10:50:00,
2013-03-02 06:05:00,32.9,26.0,29.66,West,269,0.0,2.0,75,0.00,,,0.00,weatherlink.com 1.10,2013-03-02 11:05:00,
2013-03-02 06:20:00,32.4,26.0,29.66,West,272,0.0,2.0,76,0.00,,,0.00,weatherlink.com 1.10,2013-03-02 11:20:00,
2013-03-02 06:35:00,31.7,26.0,29.66,SW,229,0.0,1.0,78,0.00,,,0.00,weatherlink.com 1.10,2013-03-02 11:35:00,
2013-03-02 06:50:00,31.2,25.0,29.66,WSW,242,0.0,1.0,79,0.00,,,0.00,weatherlink.com 1.10,2013-03-02 11:50:00,
2013-03-02 07:05:00,31.7,26.0,29.66,West,278,1.0,1.0,79,0.00,,,0.00,weatherlink.com 1.10,2013-03-02 12:05:00,
2013-03-02 07:20:00,32.8,26.0,29.66,West,277,0.0,3.0,77,0.00,,,0.00,weatherlink.com 1.10,2013-03-02 12:20:00,
2013-03-02 07:35:00,34.1,26.0,29.66,NW,323,0.0,4.0,73,0.00,,,0.00,weatherlink.com 1.10,2013-03-02 12:35:00,
2013-03-02 07:50:00,35.4,27.0,29.66,NW,315,3.0,4.0,70,0.00,,,0.00,weatherlink.com 1.10,2013-03-02 12:50:00,
2013-03-02 08:05:00,36.1,26.0,29.66,SSW,203,1.0,9.0,68,0.00,,,0.00,weatherlink.com 1.10,2013-03-02 13:05:00,
2013-03-02 08:20:00,37.0,27.0,29.66,NW,319,3.0,9.0,66,0.00,,,0.00,weatherlink.com 1.10,2013-03-02 13:20:00,
2013-03-02 08:35:00,37.5,27.0,29.66,ENE,65,2.0,8.0,65,0.00,,,0.00,weatherlink.com 1.10,2013-03-02 13:35:00,
2013-03-02 08:50:00,37.9,26.0,29.66,WNW,287,3.0,9.0,63,0.00,,,0.00,weatherlink.com 1.10,2013-03-02 13:50:00,
2013-03-02 09:05:00,37.9,26.0,29.66,WNW,294,8.0,8.0,63,0.00,,,0.00,weatherlink.com 1.10,2013-03-02 14:05:00,
2013-03-02 09:20:00,38.7,27.0,29.66,WNW,296,2.0,5.0,62,0.00,,,0.00,weatherlink.com 1.10,2013-03-02 14:20:00,
2013-03-02 09:35:00,39.0,26.0,29.66,West,280,4.0,8.0,61,0.00,,,0.00,weatherlink.com 1.10,2013-03-02 14:35:00,
2013-03-02 09:50:00,38.9,27.0,29.66,NNW,348,2.0,6.0,62,0.00,,,0.00,weatherlink.com 1.10,2013-03-02 14:50:00,
2013-03-02 10:05:00,39.6,27.0,29.66,NW,323,1.0,6.0,60,0.00,,,0.00,weatherlink.com 1.10,2013-03-02 15:05:00,
2013-03-02 10:20:00,39.1,27.0,29.65,NW,307,1.0,8.0,61,0.00,,,0.00,weatherlink.com 1.10,2013-03-02 15:20:00,
2013-03-02 10:35:00,39.5,27.0,29.65,NW,323,2.0,5.0,61,0.00,,,0.00,weatherlink.com 1.10,2013-03-02 15:35:00,
2013-03-02 10:50:00,40.3,27.0,29.65,WNW,294,1.0,5.0,59,0.00,,,0.00,weatherlink.com 1.10,2013-03-02 15:50:00,
2013-03-02 11:05:00,40.6,27.0,29.64,NW,317,2.0,5.0,59,0.00,,,0.00,weatherlink.com 1.10,2013-03-02 16:05:00,
2013-03-02 11:20:00,40.5,27.0,29.64,West,265,1.0,5.0,58,0.00,,,0.00,weatherlink.com 1.10,2013-03-02 16:20:00,
2013-03-02 11:35:00,41.4,27.0,29.64,East,99,2.0,5.0,58,0.00,,,0.00,weatherlink.com 1.10,2013-03-02 16:35:00,
2013-03-02 11:50:00,41.6,27.0,29.64,WNW,294,2.0,4.0,57,0.00,,,0.00,weatherlink.com 1.10,2013-03-02 16:50:00,
2013-03-02 12:05:00,42.0,28.0,29.63,NW,304,1.0,4.0,57,0.00,,,0.00,weatherlink.com 1.10,2013-03-02 17:05:00,
2013-03-02 12:20:00,42.4,28.0,29.62,North,5,1.0,4.0,56,0.00,,,0.00,weatherlink.com 1.10,2013-03-02 17:20:00,
2013-03-02 12:35:00,42.4,28.0,29.62,NW,310,3.0,4.0,56,0.00,,,0.00,weatherlink.com 1.10,2013-03-02 17:35:00,
2013-03-02 12:50:00,43.2,28.0,29.61,WSW,239,2.0,6.0,55,0.00,,,0.00,weatherlink.com 1.10,2013-03-02 17:50:00,
2013-03-02 13:06:00,45.0,29.0,29.61,West,265,1.0,4.0,53,0.00,,,0.00,weatherlink.com 1.10,2013-03-02 18:06:00,
2013-03-02 13:21:00,43.9,28.0,29.61,NNW,329,2.0,4.0,55,0.00,,,0.00,weatherlink.com 1.10,2013-03-02 18:21:00,
2013-03-02 13:36:00,43.2,28.0,29.61,South,186,1.0,4.0,55,0.00,,,0.00,weatherlink.com 1.10,2013-03-02 18:36:00,
2013-03-02 13:51:00,42.7,28.0,29.61,North,350,0.0,3.0,56,0.00,,,0.00,weatherlink.com 1.10,2013-03-02 18:51:00,
2013-03-02 14:06:00,42.7,28.0,29.61,NNW,336,0.0,3.0,57,0.00,,,0.00,weatherlink.com 1.10,2013-03-02 19:06:00,
2013-03-02 14:21:00,42.3,28.0,29.61,WNW,299,1.0,3.0,57,0.00,,,0.00,weatherlink.com 1.10,2013-03-02 19:21:00,
2013-03-02 14:36:00,41.8,28.0,29.61,WNW,292,1.0,3.0,59,0.00,,,0.00,weatherlink.com 1.10,2013-03-02 19:36:00,
2013-03-02 14:51:00,41.5,28.0,29.61,WNW,301,1.0,3.0,60,0.00,,,0.00,weatherlink.com 1.10,2013-03-02 19:51:00,
2013-03-02 15:06:00,41.1,28.0,29.61,WNW,290,0.0,5.0,61,0.00,,,0.00,weatherlink.com 1.10,2013-03-02 20:06:00,
2013-03-02 15:21:00,40.9,29.0,29.61,NW,311,0.0,3.0,62,0.00,,,0.00,weatherlink.com 1.10,2013-03-02 20:21:00,
2013-03-02 15:36:00,40.8,29.0,29.61,NW,310,0.0,4.0,62,0.00,,,0.00,weatherlink.com 1.10,2013-03-02 20:36:00,
2013-03-02 15:51:00,40.8,29.0,29.61,West,276,0.0,3.0,63,0.00,,,0.00,weatherlink.com 1.10,2013-03-02 20:51:00,
2013-03-02 16:06:00,40.6,29.0,29.61,WSW,240,0.0,2.0,63,0.00,,,0.00,weatherlink.com 1.10,2013-03-02 21:06:00,
2013-03-02 16:21:00,40.5,29.0,29.61,SSW,206,0.0,3.0,63,0.00,,,0.00,weatherlink.com 1.10,2013-03-02 21:21:00,
2013-03-02 16:36:00,40.4,29.0,29.61,SW,225,0.0,3.0,64,0.00,,,0.00,weatherlink.com 1.10,2013-03-02 21:36:00,
2013-03-02 16:51:00,40.4,29.0,29.61,SW,236,0.0,2.0,64,0.00,,,0.00,weatherlink.com 1.10,2013-03-02 21:51:00,
2013-03-02 17:06:00,40.4,29.0,29.61,SW,229,3.0,3.0,64,0.00,,,0.00,weatherlink.com 1.10,2013-03-02 22:06:00,
2013-03-02 17:21:00,40.1,29.0,29.61,West,267,0.0,3.0,65,0.00,,,0.00,weatherlink.com 1.10,2013-03-02 22:21:00,
2013-03-02 17:36:00,39.9,29.0,29.62,West,272,1.0,2.0,65,0.00,,,0.00,weatherlink.com 1.10,2013-03-02 22:36:00,
2013-03-02 17:51:00,39.7,29.0,29.62,West,273,0.0,2.0,66,0.00,,,0.00,weatherlink.com 1.10,2013-03-02 22:51:00,
2013-03-02 18:06:00,39.5,29.0,29.63,WNW,284,0.0,3.0,66,0.00,,,0.00,weatherlink.com 1.10,2013-03-02 23:06:00,
2013-03-02 18:21:00,39.3,29.0,29.63,West,272,0.0,2.0,66,0.00,,,0.00,weatherlink.com 1.10,2013-03-02 23:21:00,
2013-03-02 18:36:00,39.1,28.0,29.64,WSW,255,0.0,4.0,65,0.00,,,0.00,weatherlink.com 1.10,2013-03-02 23:36:00,
2013-03-02 18:51:00,38.9,28.0,29.64,SSW,200,0.0,2.0,65,0.00,,,0.00,weatherlink.com 1.10,2013-03-02 23:51:00,
2013-03-02 19:06:00,38.7,28.0,29.63,WNW,291,0.0,2.0,65,0.00,,,0.00,weatherlink.com 1.10,2013-03-03 00:06:00,
2013-03-02 19:21:00,38.6,28.0,29.63,NNW,342,0.0,3.0,65,0.00,,,0.00,weatherlink.com 1.10,2013-03-03 00:21:00,
2013-03-02 19:36:00,38.5,28.0,29.64,NW,317,0.0,3.0,66,0.00,,,0.00,weatherlink.com 1.10,2013-03-03 00:36:00,
2013-03-02 19:51:00,38.3,27.0,29.64,SE,145,0.0,3.0,65,0.00,,,0.00,weatherlink.com 1.10,2013-03-03 00:51:00,
2013-03-02 20:06:00,38.2,26.0,29.64,NW,312,0.0,5.0,63,0.00,,,0.00,weatherlink.com 1.10,2013-03-03 01:06:00,
2013-03-02 20:21:00,38.0,26.0,29.65,NW,321,1.0,4.0,62,0.00,,,0.00,weatherlink.com 1.10,2013-03-03 01:21:00,
2013-03-02 20:36:00,37.8,25.0,29.65,NW,325,0.0,7.0,61,0.00,,,0.00,weatherlink.com 1.10,2013-03-03 01:36:00,
2013-03-02 20:51:00,37.6,25.0,29.65,NW,314,0.0,2.0,62,0.00,,,0.00,weatherlink.com 1.10,2013-03-03 01:51:00,
2013-03-02 21:06:00,37.3,25.0,29.65,WNW,286,1.0,4.0,62,0.00,,,0.00,weatherlink.com 1.10,2013-03-03 02:06:00,
2013-03-02 21:21:00,36.9,25.0,29.65,WNW,297,0.0,5.0,63,0.00,,,0.00,weatherlink.com 1.10,2013-03-03 02:21:00,
2013-03-02 21:36:00,36.7,25.0,29.65,NNE,28,2.0,4.0,63,0.00,,,0.00,weatherlink.com 1.10,2013-03-03 02:36:00,
2013-03-02 21:51:00,36.3,25.0,29.64,NW,305,1.0,9.0,64,0.00,,,0.00,weatherlink.com 1.10,2013-03-03 02:51:00,
2013-03-02 22:06:00,36.1,25.0,29.64,NW,311,0.0,3.0,65,0.00,,,0.00,weatherlink.com 1.10,2013-03-03 03:06:00,
2013-03-02 22:21:00,35.9,25.0,29.64,WNW,290,3.0,3.0,66,0.00,,,0.00,weatherlink.com 1.10,2013-03-03 03:21:00,
2013-03-02 22:36:00,35.7,25.0,29.64,NW,313,1.0,6.0,66,0.00,,,0.00,weatherlink.com 1.10,2013-03-03 03:36:00,
2013-03-02 22:51:00,35.5,25.0,29.63,NW,315,1.0,4.0,67,0.00,,,0.00,weatherlink.com 1.10,2013-03-03 03:51:00,
2013-03-02 23:06:00,35.3,25.0,29.63,WNW,294,2.0,6.0,67,0.00,,,0.00,weatherlink.com 1.10,2013-03-03 04:06:00,
2013-03-02 23:21:00,35.1,25.0,29.63,WNW,287,3.0,3.0,68,0.00,,,0.00,weatherlink.com 1.10,2013-03-03 04:21:00,
2013-03-02 23:36:00,34.9,25.0,29.63,NNW,348,1.0,3.0,68,0.00,,,0.00,weatherlink.com 1.10,2013-03-03 04:36:00,
2013-03-02 23:51:00,34.8,25.0,29.63,NW,318,0.0,4.0,68,0.00,,,0.00,weatherlink.com 1.10,2013-03-03 04:51:00,